sensor_id;sensor_type;location;lat;lon;timestamp;P1;durP1;ratioP1;P2;durP2;ratioP2
10705;SDS011;5404;42.656;23.336;2023-12-20T00:01:00;103.70;;;46.70;;
10705;SDS011;5404;42.656;23.336;2023-12-20T00:03:26;113.60;;;47.95;;
10705;SDS011;5404;42.656;23.336;2023-12-20T00:05:51;115.07;;;49.40;;
10705;SDS011;5404;42.656;23.336;2023-12-20T00:08:17;121.32;;;52.58;;
10705;SDS011;5404;42.656;23.336;2023-12-20T00:10:45;128.68;;;53.38;;
10705;SDS011;5404;42.656;23.336;2023-12-20T00:13:10;116.40;;;50.80;;
10705;SDS011;5404;42.656;23.336;2023-12-20T00:15:36;118.32;;;51.03;;
10705;SDS011;5404;42.656;23.336;2023-12-20T00:18:01;127.72;;;53.72;;
10705;SDS011;5404;42.656;23.336;2023-12-20T00:20:27;123.95;;;52.88;;
10705;SDS011;5404;42.656;23.336;2023-12-20T00:22:54;134.10;;;54.08;;
10705;SDS011;5404;42.656;23.336;2023-12-20T00:25:21;122.73;;;51.97;;
10705;SDS011;5404;42.656;23.336;2023-12-20T00:27:46;130.15;;;54.00;;
10705;SDS011;5404;42.656;23.336;2023-12-20T00:30:11;119.85;;;52.20;;
10705;SDS011;5404;42.656;23.336;2023-12-20T00:32:37;115.30;;;51.40;;
10705;SDS011;5404;42.656;23.336;2023-12-20T00:35:03;113.68;;;51.92;;
10705;SDS011;5404;42.656;23.336;2023-12-20T00:37:29;110.07;;;49.17;;
10705;SDS011;5404;42.656;23.336;2023-12-20T00:39:54;121.43;;;50.83;;
10705;SDS011;5404;42.656;23.336;2023-12-20T00:42:19;111.45;;;49.28;;
10705;SDS011;5404;42.656;23.336;2023-12-20T00:44:45;118.22;;;50.88;;
10705;SDS011;5404;42.656;23.336;2023-12-20T00:47:10;118.10;;;50.97;;
10705;SDS011;5404;42.656;23.336;2023-12-20T00:49:36;118.30;;;50.00;;
10705;SDS011;5404;42.656;23.336;2023-12-20T00:52:01;113.90;;;50.70;;
10705;SDS011;5404;42.656;23.336;2023-12-20T00:54:26;109.82;;;48.92;;
10705;SDS011;5404;42.656;23.336;2023-12-20T00:56:52;124.80;;;51.58;;
10705;SDS011;5404;42.656;23.336;2023-12-20T00:59:17;113.22;;;49.15;;
10705;SDS011;5404;42.656;23.336;2023-12-20T01:01:44;121.70;;;51.70;;
10705;SDS011;5404;42.656;23.336;2023-12-20T01:04:09;125.70;;;53.17;;
10705;SDS011;5404;42.656;23.336;2023-12-20T01:09:10;113.72;;;47.38;;
10705;SDS011;5404;42.656;23.336;2023-12-20T01:11:35;119.05;;;49.97;;
10705;SDS011;5404;42.656;23.336;2023-12-20T01:14:01;103.63;;;47.92;;
10705;SDS011;5404;42.656;23.336;2023-12-20T01:16:26;102.57;;;45.72;;
10705;SDS011;5404;42.656;23.336;2023-12-20T01:18:52;105.90;;;47.40;;
10705;SDS011;5404;42.656;23.336;2023-12-20T01:21:17;107.78;;;48.13;;
10705;SDS011;5404;42.656;23.336;2023-12-20T01:23:42;105.07;;;47.30;;
10705;SDS011;5404;42.656;23.336;2023-12-20T01:26:08;109.32;;;48.22;;
10705;SDS011;5404;42.656;23.336;2023-12-20T01:28:34;103.65;;;47.97;;
10705;SDS011;5404;42.656;23.336;2023-12-20T01:30:59;106.20;;;47.88;;
10705;SDS011;5404;42.656;23.336;2023-12-20T01:33:25;107.15;;;47.50;;
10705;SDS011;5404;42.656;23.336;2023-12-20T01:35:50;105.20;;;46.17;;
10705;SDS011;5404;42.656;23.336;2023-12-20T01:38:15;99.75;;;44.95;;
10705;SDS011;5404;42.656;23.336;2023-12-20T01:40:43;102.72;;;43.58;;
10705;SDS011;5404;42.656;23.336;2023-12-20T01:43:09;104.72;;;44.42;;
10705;SDS011;5404;42.656;23.336;2023-12-20T01:45:36;89.00;;;40.53;;
10705;SDS011;5404;42.656;23.336;2023-12-20T01:48:02;91.72;;;41.42;;
10705;SDS011;5404;42.656;23.336;2023-12-20T01:50:29;97.50;;;43.22;;
10705;SDS011;5404;42.656;23.336;2023-12-20T01:52:56;92.07;;;42.63;;
10705;SDS011;5404;42.656;23.336;2023-12-20T01:55:25;103.10;;;42.00;;
10705;SDS011;5404;42.656;23.336;2023-12-20T01:57:52;95.50;;;42.78;;
10705;SDS011;5404;42.656;23.336;2023-12-20T02:00:18;85.75;;;39.60;;
10705;SDS011;5404;42.656;23.336;2023-12-20T02:02:48;95.85;;;42.65;;
10705;SDS011;5404;42.656;23.336;2023-12-20T02:05:15;93.05;;;41.45;;
10705;SDS011;5404;42.656;23.336;2023-12-20T02:07:41;96.53;;;40.00;;
10705;SDS011;5404;42.656;23.336;2023-12-20T02:10:07;90.25;;;40.03;;
10705;SDS011;5404;42.656;23.336;2023-12-20T02:12:33;85.78;;;35.30;;
10705;SDS011;5404;42.656;23.336;2023-12-20T02:14:58;74.40;;;32.25;;
10705;SDS011;5404;42.656;23.336;2023-12-20T02:17:24;78.22;;;36.70;;
10705;SDS011;5404;42.656;23.336;2023-12-20T02:19:50;91.05;;;38.97;;
10705;SDS011;5404;42.656;23.336;2023-12-20T02:22:16;78.07;;;35.42;;
10705;SDS011;5404;42.656;23.336;2023-12-20T02:24:41;80.93;;;36.13;;
10705;SDS011;5404;42.656;23.336;2023-12-20T02:27:07;84.05;;;35.50;;
10705;SDS011;5404;42.656;23.336;2023-12-20T02:29:33;82.95;;;34.03;;
10705;SDS011;5404;42.656;23.336;2023-12-20T02:31:59;76.25;;;31.88;;
10705;SDS011;5404;42.656;23.336;2023-12-20T02:34:24;66.45;;;31.52;;
10705;SDS011;5404;42.656;23.336;2023-12-20T02:36:50;83.70;;;35.30;;
10705;SDS011;5404;42.656;23.336;2023-12-20T02:39:15;75.97;;;34.22;;
10705;SDS011;5404;42.656;23.336;2023-12-20T02:41:41;75.40;;;34.15;;
10705;SDS011;5404;42.656;23.336;2023-12-20T02:44:06;66.85;;;31.83;;
10705;SDS011;5404;42.656;23.336;2023-12-20T02:46:32;75.07;;;34.53;;
10705;SDS011;5404;42.656;23.336;2023-12-20T02:48:57;67.07;;;31.85;;
10705;SDS011;5404;42.656;23.336;2023-12-20T02:51:23;64.40;;;30.58;;
10705;SDS011;5404;42.656;23.336;2023-12-20T02:53:48;75.60;;;31.80;;
10705;SDS011;5404;42.656;23.336;2023-12-20T02:56:13;75.65;;;34.95;;
10705;SDS011;5404;42.656;23.336;2023-12-20T02:58:39;76.07;;;33.10;;
10705;SDS011;5404;42.656;23.336;2023-12-20T03:01:05;64.07;;;28.73;;
10705;SDS011;5404;42.656;23.336;2023-12-20T03:03:31;69.30;;;29.95;;
10705;SDS011;5404;42.656;23.336;2023-12-20T03:05:57;61.70;;;28.38;;
10705;SDS011;5404;42.656;23.336;2023-12-20T03:08:22;67.00;;;30.15;;
10705;SDS011;5404;42.656;23.336;2023-12-20T03:10:47;62.92;;;28.83;;
10705;SDS011;5404;42.656;23.336;2023-12-20T03:13:13;66.15;;;31.42;;
10705;SDS011;5404;42.656;23.336;2023-12-20T03:15:39;69.00;;;31.63;;
10705;SDS011;5404;42.656;23.336;2023-12-20T03:18:05;63.58;;;29.35;;
10705;SDS011;5404;42.656;23.336;2023-12-20T03:20:30;67.53;;;30.38;;
10705;SDS011;5404;42.656;23.336;2023-12-20T03:22:59;76.03;;;32.35;;
10705;SDS011;5404;42.656;23.336;2023-12-20T03:25:25;71.78;;;31.13;;
10705;SDS011;5404;42.656;23.336;2023-12-20T03:27:50;67.25;;;29.08;;
10705;SDS011;5404;42.656;23.336;2023-12-20T03:30:15;68.32;;;31.08;;
10705;SDS011;5404;42.656;23.336;2023-12-20T03:32:41;74.00;;;32.33;;
10705;SDS011;5404;42.656;23.336;2023-12-20T03:35:06;72.28;;;32.08;;
10705;SDS011;5404;42.656;23.336;2023-12-20T03:37:32;68.78;;;31.35;;
10705;SDS011;5404;42.656;23.336;2023-12-20T03:39:57;75.20;;;33.80;;
10705;SDS011;5404;42.656;23.336;2023-12-20T03:42:22;71.10;;;32.33;;
10705;SDS011;5404;42.656;23.336;2023-12-20T03:44:48;68.75;;;31.45;;
10705;SDS011;5404;42.656;23.336;2023-12-20T03:47:13;72.93;;;32.75;;
10705;SDS011;5404;42.656;23.336;2023-12-20T03:49:39;74.63;;;31.00;;
10705;SDS011;5404;42.656;23.336;2023-12-20T03:52:04;72.60;;;33.25;;
10705;SDS011;5404;42.656;23.336;2023-12-20T03:54:30;78.13;;;35.20;;
10705;SDS011;5404;42.656;23.336;2023-12-20T03:56:55;71.60;;;32.10;;
10705;SDS011;5404;42.656;23.336;2023-12-20T03:59:22;69.90;;;32.97;;
10705;SDS011;5404;42.656;23.336;2023-12-20T04:01:47;83.30;;;35.22;;
10705;SDS011;5404;42.656;23.336;2023-12-20T04:04:13;71.65;;;34.22;;
10705;SDS011;5404;42.656;23.336;2023-12-20T04:06:38;74.07;;;35.60;;
10705;SDS011;5404;42.656;23.336;2023-12-20T04:09:04;85.10;;;37.75;;
10705;SDS011;5404;42.656;23.336;2023-12-20T04:11:30;79.70;;;36.25;;
10705;SDS011;5404;42.656;23.336;2023-12-20T04:13:55;78.97;;;35.80;;
10705;SDS011;5404;42.656;23.336;2023-12-20T04:16:21;81.43;;;36.30;;
10705;SDS011;5404;42.656;23.336;2023-12-20T04:18:46;87.10;;;36.33;;
10705;SDS011;5404;42.656;23.336;2023-12-20T04:21:11;84.07;;;36.35;;
10705;SDS011;5404;42.656;23.336;2023-12-20T04:23:37;82.97;;;36.00;;
10705;SDS011;5404;42.656;23.336;2023-12-20T04:26:02;85.68;;;35.60;;
10705;SDS011;5404;42.656;23.336;2023-12-20T04:28:28;77.78;;;36.85;;
10705;SDS011;5404;42.656;23.336;2023-12-20T04:30:55;76.78;;;34.53;;
10705;SDS011;5404;42.656;23.336;2023-12-20T04:33:21;74.05;;;34.22;;
10705;SDS011;5404;42.656;23.336;2023-12-20T04:35:46;75.03;;;33.42;;
10705;SDS011;5404;42.656;23.336;2023-12-20T04:38:12;80.47;;;34.58;;
10705;SDS011;5404;42.656;23.336;2023-12-20T04:40:37;84.50;;;38.58;;
10705;SDS011;5404;42.656;23.336;2023-12-20T04:43:04;94.50;;;42.63;;
10705;SDS011;5404;42.656;23.336;2023-12-20T04:45:29;104.38;;;43.92;;
10705;SDS011;5404;42.656;23.336;2023-12-20T04:47:55;94.25;;;42.13;;
10705;SDS011;5404;42.656;23.336;2023-12-20T04:50:20;95.60;;;42.35;;
10705;SDS011;5404;42.656;23.336;2023-12-20T04:52:46;100.97;;;43.97;;
10705;SDS011;5404;42.656;23.336;2023-12-20T04:55:12;97.45;;;42.05;;
10705;SDS011;5404;42.656;23.336;2023-12-20T04:57:37;110.68;;;49.75;;
10705;SDS011;5404;42.656;23.336;2023-12-20T05:00:03;105.35;;;46.67;;
10705;SDS011;5404;42.656;23.336;2023-12-20T05:02:29;139.68;;;61.33;;
10705;SDS011;5404;42.656;23.336;2023-12-20T05:04:55;128.93;;;56.85;;
10705;SDS011;5404;42.656;23.336;2023-12-20T05:07:20;113.45;;;51.20;;
10705;SDS011;5404;42.656;23.336;2023-12-20T05:09:45;125.88;;;55.13;;
10705;SDS011;5404;42.656;23.336;2023-12-20T05:12:11;127.88;;;56.20;;
10705;SDS011;5404;42.656;23.336;2023-12-20T05:14:36;131.77;;;58.80;;
10705;SDS011;5404;42.656;23.336;2023-12-20T05:17:02;148.80;;;63.50;;
10705;SDS011;5404;42.656;23.336;2023-12-20T05:19:28;151.50;;;66.75;;
10705;SDS011;5404;42.656;23.336;2023-12-20T05:21:53;155.43;;;67.28;;
10705;SDS011;5404;42.656;23.336;2023-12-20T05:24:19;165.00;;;67.93;;
10705;SDS011;5404;42.656;23.336;2023-12-20T05:26:44;151.95;;;69.15;;
10705;SDS011;5404;42.656;23.336;2023-12-20T05:29:09;171.75;;;68.85;;
10705;SDS011;5404;42.656;23.336;2023-12-20T05:31:35;231.95;;;102.88;;
10705;SDS011;5404;42.656;23.336;2023-12-20T05:34:00;192.35;;;82.40;;
10705;SDS011;5404;42.656;23.336;2023-12-20T05:36:26;187.00;;;81.53;;
10705;SDS011;5404;42.656;23.336;2023-12-20T05:38:51;184.65;;;81.78;;
10705;SDS011;5404;42.656;23.336;2023-12-20T05:41:16;198.73;;;83.97;;
10705;SDS011;5404;42.656;23.336;2023-12-20T05:43:42;184.10;;;85.00;;
10705;SDS011;5404;42.656;23.336;2023-12-20T05:46:09;188.23;;;81.88;;
10705;SDS011;5404;42.656;23.336;2023-12-20T05:48:37;210.27;;;86.75;;
10705;SDS011;5404;42.656;23.336;2023-12-20T05:51:02;202.18;;;88.63;;
10705;SDS011;5404;42.656;23.336;2023-12-20T05:53:28;191.15;;;85.80;;
10705;SDS011;5404;42.656;23.336;2023-12-20T05:55:53;199.07;;;87.43;;
10705;SDS011;5404;42.656;23.336;2023-12-20T05:58:18;193.30;;;81.95;;
10705;SDS011;5404;42.656;23.336;2023-12-20T06:00:44;199.38;;;82.90;;
10705;SDS011;5404;42.656;23.336;2023-12-20T06:03:09;186.82;;;84.95;;
10705;SDS011;5404;42.656;23.336;2023-12-20T06:05:35;200.32;;;88.47;;
10705;SDS011;5404;42.656;23.336;2023-12-20T06:08:00;199.32;;;82.22;;
10705;SDS011;5404;42.656;23.336;2023-12-20T06:10:28;225.82;;;100.25;;
10705;SDS011;5404;42.656;23.336;2023-12-20T06:12:53;226.15;;;94.10;;
10705;SDS011;5404;42.656;23.336;2023-12-20T06:15:19;230.27;;;99.70;;
10705;SDS011;5404;42.656;23.336;2023-12-20T06:17:45;209.32;;;83.93;;
10705;SDS011;5404;42.656;23.336;2023-12-20T06:20:12;268.40;;;97.53;;
10705;SDS011;5404;42.656;23.336;2023-12-20T06:22:38;209.35;;;83.65;;
10705;SDS011;5404;42.656;23.336;2023-12-20T06:25:04;191.82;;;77.10;;
10705;SDS011;5404;42.656;23.336;2023-12-20T06:27:29;226.60;;;94.85;;
10705;SDS011;5404;42.656;23.336;2023-12-20T06:29:57;229.20;;;99.53;;
10705;SDS011;5404;42.656;23.336;2023-12-20T06:32:22;206.73;;;92.80;;
10705;SDS011;5404;42.656;23.336;2023-12-20T06:34:48;178.50;;;81.20;;
10705;SDS011;5404;42.656;23.336;2023-12-20T06:37:14;277.08;;;125.25;;
10705;SDS011;5404;42.656;23.336;2023-12-20T06:39:40;210.38;;;94.22;;
10705;SDS011;5404;42.656;23.336;2023-12-20T06:42:05;290.05;;;120.70;;
10705;SDS011;5404;42.656;23.336;2023-12-20T06:44:31;236.13;;;102.18;;
10705;SDS011;5404;42.656;23.336;2023-12-20T06:46:56;202.95;;;92.30;;
10705;SDS011;5404;42.656;23.336;2023-12-20T06:49:22;201.98;;;88.45;;
10705;SDS011;5404;42.656;23.336;2023-12-20T06:51:47;207.23;;;84.45;;
10705;SDS011;5404;42.656;23.336;2023-12-20T06:54:13;187.88;;;83.57;;
10705;SDS011;5404;42.656;23.336;2023-12-20T06:56:38;212.27;;;86.90;;
10705;SDS011;5404;42.656;23.336;2023-12-20T06:59:04;238.43;;;90.88;;
10705;SDS011;5404;42.656;23.336;2023-12-20T07:01:29;207.52;;;87.70;;
10705;SDS011;5404;42.656;23.336;2023-12-20T07:03:54;223.30;;;88.95;;
10705;SDS011;5404;42.656;23.336;2023-12-20T07:06:20;248.02;;;97.53;;
10705;SDS011;5404;42.656;23.336;2023-12-20T07:08:45;266.00;;;104.63;;
10705;SDS011;5404;42.656;23.336;2023-12-20T07:11:11;254.43;;;97.47;;
10705;SDS011;5404;42.656;23.336;2023-12-20T07:13:37;221.98;;;90.90;;
10705;SDS011;5404;42.656;23.336;2023-12-20T07:16:02;203.93;;;85.72;;
10705;SDS011;5404;42.656;23.336;2023-12-20T07:18:28;204.43;;;86.10;;
10705;SDS011;5404;42.656;23.336;2023-12-20T07:20:54;191.48;;;83.55;;
10705;SDS011;5404;42.656;23.336;2023-12-20T07:23:20;208.25;;;89.88;;
10705;SDS011;5404;42.656;23.336;2023-12-20T07:25:46;198.98;;;86.50;;
10705;SDS011;5404;42.656;23.336;2023-12-20T07:28:12;203.30;;;88.68;;
10705;SDS011;5404;42.656;23.336;2023-12-20T07:30:37;203.45;;;88.88;;
10705;SDS011;5404;42.656;23.336;2023-12-20T07:33:02;207.85;;;91.07;;
10705;SDS011;5404;42.656;23.336;2023-12-20T07:35:28;205.25;;;90.53;;
10705;SDS011;5404;42.656;23.336;2023-12-20T07:37:53;220.77;;;91.85;;
10705;SDS011;5404;42.656;23.336;2023-12-20T07:40:19;213.18;;;90.68;;
10705;SDS011;5404;42.656;23.336;2023-12-20T07:42:44;205.43;;;90.03;;
10705;SDS011;5404;42.656;23.336;2023-12-20T07:45:10;208.38;;;90.00;;
10705;SDS011;5404;42.656;23.336;2023-12-20T07:47:38;216.90;;;92.22;;
10705;SDS011;5404;42.656;23.336;2023-12-20T07:50:04;187.00;;;85.97;;
10705;SDS011;5404;42.656;23.336;2023-12-20T07:52:29;201.82;;;88.28;;
10705;SDS011;5404;42.656;23.336;2023-12-20T07:54:55;194.65;;;85.25;;
10705;SDS011;5404;42.656;23.336;2023-12-20T07:57:21;192.38;;;87.22;;
10705;SDS011;5404;42.656;23.336;2023-12-20T07:59:46;197.68;;;83.40;;
10705;SDS011;5404;42.656;23.336;2023-12-20T08:02:12;200.90;;;89.63;;
10705;SDS011;5404;42.656;23.336;2023-12-20T08:04:37;196.25;;;88.43;;
10705;SDS011;5404;42.656;23.336;2023-12-20T08:07:03;189.13;;;82.50;;
10705;SDS011;5404;42.656;23.336;2023-12-20T08:09:28;195.68;;;85.65;;
10705;SDS011;5404;42.656;23.336;2023-12-20T08:11:54;190.43;;;81.30;;
10705;SDS011;5404;42.656;23.336;2023-12-20T08:14:20;177.65;;;81.05;;
10705;SDS011;5404;42.656;23.336;2023-12-20T08:16:45;187.00;;;83.95;;
10705;SDS011;5404;42.656;23.336;2023-12-20T08:19:11;171.45;;;77.53;;
10705;SDS011;5404;42.656;23.336;2023-12-20T08:21:36;174.45;;;79.65;;
10705;SDS011;5404;42.656;23.336;2023-12-20T08:24:01;158.13;;;74.53;;
10705;SDS011;5404;42.656;23.336;2023-12-20T08:26:27;164.95;;;72.93;;
10705;SDS011;5404;42.656;23.336;2023-12-20T08:28:53;155.50;;;70.47;;
10705;SDS011;5404;42.656;23.336;2023-12-20T08:31:18;162.90;;;71.00;;
10705;SDS011;5404;42.656;23.336;2023-12-20T08:33:44;157.90;;;75.80;;
10705;SDS011;5404;42.656;23.336;2023-12-20T08:36:11;145.98;;;62.70;;
10705;SDS011;5404;42.656;23.336;2023-12-20T08:38:37;141.10;;;63.13;;
10705;SDS011;5404;42.656;23.336;2023-12-20T08:41:03;144.57;;;62.50;;
10705;SDS011;5404;42.656;23.336;2023-12-20T08:43:31;136.27;;;63.67;;
10705;SDS011;5404;42.656;23.336;2023-12-20T08:45:58;121.03;;;55.83;;
10705;SDS011;5404;42.656;23.336;2023-12-20T08:48:25;130.70;;;57.65;;
10705;SDS011;5404;42.656;23.336;2023-12-20T08:50:50;126.38;;;54.38;;
10705;SDS011;5404;42.656;23.336;2023-12-20T08:53:17;131.43;;;61.03;;
10705;SDS011;5404;42.656;23.336;2023-12-20T08:55:46;136.48;;;61.53;;
10705;SDS011;5404;42.656;23.336;2023-12-20T08:58:11;112.60;;;53.08;;
10705;SDS011;5404;42.656;23.336;2023-12-20T09:00:37;111.32;;;51.75;;
10705;SDS011;5404;42.656;23.336;2023-12-20T09:03:03;108.28;;;48.15;;
10705;SDS011;5404;42.656;23.336;2023-12-20T09:05:29;116.15;;;50.38;;
10705;SDS011;5404;42.656;23.336;2023-12-20T09:07:55;119.10;;;49.72;;
10705;SDS011;5404;42.656;23.336;2023-12-20T09:10:20;102.25;;;50.70;;
10705;SDS011;5404;42.656;23.336;2023-12-20T09:12:53;106.20;;;48.53;;
10705;SDS011;5404;42.656;23.336;2023-12-20T09:15:22;109.40;;;47.72;;
10705;SDS011;5404;42.656;23.336;2023-12-20T09:17:50;108.90;;;50.53;;
10705;SDS011;5404;42.656;23.336;2023-12-20T09:20:16;127.50;;;56.50;;
10705;SDS011;5404;42.656;23.336;2023-12-20T09:22:41;116.72;;;49.33;;
10705;SDS011;5404;42.656;23.336;2023-12-20T09:25:07;109.57;;;46.00;;
10705;SDS011;5404;42.656;23.336;2023-12-20T09:27:33;111.93;;;48.75;;
10705;SDS011;5404;42.656;23.336;2023-12-20T09:29:58;126.15;;;50.65;;
10705;SDS011;5404;42.656;23.336;2023-12-20T09:32:24;111.40;;;47.83;;
10705;SDS011;5404;42.656;23.336;2023-12-20T09:34:49;118.78;;;49.50;;
10705;SDS011;5404;42.656;23.336;2023-12-20T09:37:14;127.10;;;48.97;;
10705;SDS011;5404;42.656;23.336;2023-12-20T09:39:40;116.80;;;46.63;;
10705;SDS011;5404;42.656;23.336;2023-12-20T09:42:06;114.72;;;49.05;;
10705;SDS011;5404;42.656;23.336;2023-12-20T09:44:32;129.30;;;51.75;;
10705;SDS011;5404;42.656;23.336;2023-12-20T09:46:59;120.00;;;50.20;;
10705;SDS011;5404;42.656;23.336;2023-12-20T09:49:28;134.40;;;50.75;;
10705;SDS011;5404;42.656;23.336;2023-12-20T09:51:54;129.65;;;50.33;;
10705;SDS011;5404;42.656;23.336;2023-12-20T09:54:20;131.48;;;52.25;;
10705;SDS011;5404;42.656;23.336;2023-12-20T09:56:47;139.93;;;54.20;;
10705;SDS011;5404;42.656;23.336;2023-12-20T09:59:13;132.05;;;53.40;;
10705;SDS011;5404;42.656;23.336;2023-12-20T10:01:40;123.85;;;51.70;;
10705;SDS011;5404;42.656;23.336;2023-12-20T10:04:06;128.93;;;50.05;;
10705;SDS011;5404;42.656;23.336;2023-12-20T10:06:34;127.57;;;50.70;;
10705;SDS011;5404;42.656;23.336;2023-12-20T10:09:04;121.18;;;53.83;;
10705;SDS011;5404;42.656;23.336;2023-12-20T10:11:30;120.68;;;51.60;;
10705;SDS011;5404;42.656;23.336;2023-12-20T10:13:59;112.53;;;51.63;;
10705;SDS011;5404;42.656;23.336;2023-12-20T10:16:27;124.35;;;51.30;;
10705;SDS011;5404;42.656;23.336;2023-12-20T10:18:53;136.82;;;53.90;;
10705;SDS011;5404;42.656;23.336;2023-12-20T10:21:19;134.88;;;58.03;;
10705;SDS011;5404;42.656;23.336;2023-12-20T10:23:45;128.57;;;55.28;;
10705;SDS011;5404;42.656;23.336;2023-12-20T10:26:18;130.32;;;56.78;;
10705;SDS011;5404;42.656;23.336;2023-12-20T10:28:45;119.18;;;53.03;;
10705;SDS011;5404;42.656;23.336;2023-12-20T10:31:21;111.38;;;52.72;;
10705;SDS011;5404;42.656;23.336;2023-12-20T10:36:26;116.35;;;52.90;;
10705;SDS011;5404;42.656;23.336;2023-12-20T10:38:53;106.88;;;51.42;;
10705;SDS011;5404;42.656;23.336;2023-12-20T10:41:24;115.55;;;53.55;;
10705;SDS011;5404;42.656;23.336;2023-12-20T10:43:52;105.55;;;51.78;;
10705;SDS011;5404;42.656;23.336;2023-12-20T10:46:20;106.85;;;53.03;;
10705;SDS011;5404;42.656;23.336;2023-12-20T10:48:45;104.75;;;52.15;;
10705;SDS011;5404;42.656;23.336;2023-12-20T10:51:13;101.30;;;51.17;;
10705;SDS011;5404;42.656;23.336;2023-12-20T10:53:42;96.97;;;47.78;;
10705;SDS011;5404;42.656;23.336;2023-12-20T10:56:08;110.35;;;53.70;;
10705;SDS011;5404;42.656;23.336;2023-12-20T10:58:40;105.97;;;53.50;;
10705;SDS011;5404;42.656;23.336;2023-12-20T11:01:08;106.00;;;51.50;;
10705;SDS011;5404;42.656;23.336;2023-12-20T11:03:34;109.78;;;53.50;;
10705;SDS011;5404;42.656;23.336;2023-12-20T11:09:20;140.30;;;56.08;;
10705;SDS011;5404;42.656;23.336;2023-12-20T11:11:58;184.02;;;79.95;;
10705;SDS011;5404;42.656;23.336;2023-12-20T11:17:11;143.80;;;58.65;;
10705;SDS011;5404;42.656;23.336;2023-12-20T11:22:23;137.68;;;57.10;;
10705;SDS011;5404;42.656;23.336;2023-12-20T11:24:50;146.90;;;57.97;;
10705;SDS011;5404;42.656;23.336;2023-12-20T11:27:17;149.18;;;59.35;;
10705;SDS011;5404;42.656;23.336;2023-12-20T11:29:50;142.65;;;59.25;;
10705;SDS011;5404;42.656;23.336;2023-12-20T11:34:58;141.00;;;55.17;;
10705;SDS011;5404;42.656;23.336;2023-12-20T11:37:48;155.27;;;60.88;;
10705;SDS011;5404;42.656;23.336;2023-12-20T11:40:17;137.00;;;57.00;;
10705;SDS011;5404;42.656;23.336;2023-12-20T11:42:48;126.88;;;55.35;;
10705;SDS011;5404;42.656;23.336;2023-12-20T11:45:15;131.52;;;56.63;;
10705;SDS011;5404;42.656;23.336;2023-12-20T11:47:46;133.10;;;54.30;;
10705;SDS011;5404;42.656;23.336;2023-12-20T11:50:12;133.80;;;54.42;;
10705;SDS011;5404;42.656;23.336;2023-12-20T11:52:38;124.07;;;54.20;;
10705;SDS011;5404;42.656;23.336;2023-12-20T11:55:03;125.53;;;54.63;;
10705;SDS011;5404;42.656;23.336;2023-12-20T11:57:30;126.43;;;55.50;;
10705;SDS011;5404;42.656;23.336;2023-12-20T11:59:56;142.98;;;61.85;;
10705;SDS011;5404;42.656;23.336;2023-12-20T12:02:21;141.48;;;67.18;;
10705;SDS011;5404;42.656;23.336;2023-12-20T12:04:48;124.88;;;54.33;;
10705;SDS011;5404;42.656;23.336;2023-12-20T12:07:15;120.60;;;54.88;;
10705;SDS011;5404;42.656;23.336;2023-12-20T12:09:41;123.60;;;56.15;;
10705;SDS011;5404;42.656;23.336;2023-12-20T12:12:07;120.15;;;52.35;;
10705;SDS011;5404;42.656;23.336;2023-12-20T12:14:33;117.03;;;54.03;;
10705;SDS011;5404;42.656;23.336;2023-12-20T12:17:00;122.45;;;54.95;;
10705;SDS011;5404;42.656;23.336;2023-12-20T12:19:26;119.65;;;54.67;;
10705;SDS011;5404;42.656;23.336;2023-12-20T12:22:13;129.68;;;57.03;;
10705;SDS011;5404;42.656;23.336;2023-12-20T12:24:47;127.57;;;53.38;;
10705;SDS011;5404;42.656;23.336;2023-12-20T12:27:14;132.45;;;54.83;;
10705;SDS011;5404;42.656;23.336;2023-12-20T12:29:41;117.90;;;54.78;;
10705;SDS011;5404;42.656;23.336;2023-12-20T12:32:24;122.00;;;53.55;;
10705;SDS011;5404;42.656;23.336;2023-12-20T12:34:50;131.23;;;54.47;;
10705;SDS011;5404;42.656;23.336;2023-12-20T12:37:15;119.03;;;51.03;;
10705;SDS011;5404;42.656;23.336;2023-12-20T12:39:41;116.00;;;52.63;;
10705;SDS011;5404;42.656;23.336;2023-12-20T12:42:06;114.10;;;53.20;;
10705;SDS011;5404;42.656;23.336;2023-12-20T12:44:31;121.07;;;53.88;;
10705;SDS011;5404;42.656;23.336;2023-12-20T12:46:57;132.10;;;55.35;;
10705;SDS011;5404;42.656;23.336;2023-12-20T12:49:22;133.65;;;54.60;;
10705;SDS011;5404;42.656;23.336;2023-12-20T12:51:48;128.75;;;53.38;;
10705;SDS011;5404;42.656;23.336;2023-12-20T12:54:13;130.70;;;55.60;;
10705;SDS011;5404;42.656;23.336;2023-12-20T12:56:41;144.23;;;57.78;;
10705;SDS011;5404;42.656;23.336;2023-12-20T12:59:07;130.05;;;54.75;;
10705;SDS011;5404;42.656;23.336;2023-12-20T13:01:32;151.63;;;61.60;;
10705;SDS011;5404;42.656;23.336;2023-12-20T13:03:57;139.27;;;57.28;;
10705;SDS011;5404;42.656;23.336;2023-12-20T13:06:23;138.07;;;54.88;;
10705;SDS011;5404;42.656;23.336;2023-12-20T13:08:48;132.68;;;58.13;;
10705;SDS011;5404;42.656;23.336;2023-12-20T13:11:14;136.73;;;57.97;;
10705;SDS011;5404;42.656;23.336;2023-12-20T13:13:40;146.38;;;57.05;;
10705;SDS011;5404;42.656;23.336;2023-12-20T13:16:05;136.85;;;53.13;;
10705;SDS011;5404;42.656;23.336;2023-12-20T13:18:31;157.18;;;60.83;;
10705;SDS011;5404;42.656;23.336;2023-12-20T13:20:56;148.23;;;56.70;;
10705;SDS011;5404;42.656;23.336;2023-12-20T13:23:22;162.70;;;63.13;;
10705;SDS011;5404;42.656;23.336;2023-12-20T13:25:47;171.32;;;63.97;;
10705;SDS011;5404;42.656;23.336;2023-12-20T13:28:13;159.45;;;57.70;;
10705;SDS011;5404;42.656;23.336;2023-12-20T13:30:38;176.77;;;67.40;;
10705;SDS011;5404;42.656;23.336;2023-12-20T13:33:04;181.13;;;66.15;;
10705;SDS011;5404;42.656;23.336;2023-12-20T13:35:30;190.90;;;67.70;;
10705;SDS011;5404;42.656;23.336;2023-12-20T13:37:57;157.25;;;62.35;;
10705;SDS011;5404;42.656;23.336;2023-12-20T13:40:23;172.07;;;65.05;;
10705;SDS011;5404;42.656;23.336;2023-12-20T13:42:48;163.00;;;59.55;;
10705;SDS011;5404;42.656;23.336;2023-12-20T13:45:13;162.75;;;63.78;;
10705;SDS011;5404;42.656;23.336;2023-12-20T13:47:39;150.43;;;60.85;;
10705;SDS011;5404;42.656;23.336;2023-12-20T13:50:04;177.07;;;69.15;;
10705;SDS011;5404;42.656;23.336;2023-12-20T13:52:30;184.73;;;70.80;;
10705;SDS011;5404;42.656;23.336;2023-12-20T13:54:56;180.35;;;67.95;;
10705;SDS011;5404;42.656;23.336;2023-12-20T13:57:21;178.98;;;64.55;;
10705;SDS011;5404;42.656;23.336;2023-12-20T13:59:46;182.23;;;69.22;;
10705;SDS011;5404;42.656;23.336;2023-12-20T14:02:12;183.65;;;67.53;;
10705;SDS011;5404;42.656;23.336;2023-12-20T14:04:38;169.23;;;64.63;;
10705;SDS011;5404;42.656;23.336;2023-12-20T14:07:04;182.98;;;67.07;;
10705;SDS011;5404;42.656;23.336;2023-12-20T14:09:32;180.05;;;64.38;;
10705;SDS011;5404;42.656;23.336;2023-12-20T14:11:58;181.15;;;64.90;;
10705;SDS011;5404;42.656;23.336;2023-12-20T14:14:23;186.32;;;67.22;;
10705;SDS011;5404;42.656;23.336;2023-12-20T14:16:49;176.18;;;65.20;;
10705;SDS011;5404;42.656;23.336;2023-12-20T14:19:14;178.07;;;64.50;;
10705;SDS011;5404;42.656;23.336;2023-12-20T14:21:41;170.85;;;64.70;;